sensor_id;sensor_type;location;lat;lon;timestamp;pressure;altitude;pressure_sealevel;temperature
10869;BMP180;62667;48.698;8.762;2023-05-07T00:00:56;95918.00;;;12.70
10869;BMP180;62667;48.698;8.762;2023-05-07T00:03:25;95923.00;;;12.70
10869;BMP180;62667;48.698;8.762;2023-05-07T00:05:54;95927.00;;;12.60
10869;BMP180;62667;48.698;8.762;2023-05-07T00:08:21;95915.00;;;12.60
10869;BMP180;62667;48.698;8.762;2023-05-07T00:10:48;95924.00;;;12.60
10869;BMP180;62667;48.698;8.762;2023-05-07T00:13:15;95922.00;;;12.70
10869;BMP180;62667;48.698;8.762;2023-05-07T00:15:42;95913.00;;;12.70
10869;BMP180;62667;48.698;8.762;2023-05-07T00:18:09;95922.00;;;12.50
10869;BMP180;62667;48.698;8.762;2023-05-07T00:20:36;95918.00;;;12.50
10869;BMP180;62667;48.698;8.762;2023-05-07T00:23:05;95914.00;;;12.50
10869;BMP180;62667;48.698;8.762;2023-05-07T00:25:33;95917.00;;;12.30
10869;BMP180;62667;48.698;8.762;2023-05-07T00:28:01;95916.00;;;12.30
10869;BMP180;62667;48.698;8.762;2023-05-07T00:30:29;95910.00;;;12.30
10869;BMP180;62667;48.698;8.762;2023-05-07T00:32:56;95912.00;;;12.40
10869;BMP180;62667;48.698;8.762;2023-05-07T00:35:23;95904.00;;;12.40
10869;BMP180;62667;48.698;8.762;2023-05-07T00:37:50;95902.00;;;12.40
10869;BMP180;62667;48.698;8.762;2023-05-07T00:40:19;95898.00;;;12.40
10869;BMP180;62667;48.698;8.762;2023-05-07T00:42:46;95894.00;;;12.30
10869;BMP180;62667;48.698;8.762;2023-05-07T00:45:14;95887.00;;;12.50
10869;BMP180;62667;48.698;8.762;2023-05-07T00:47:42;95900.00;;;12.50
10869;BMP180;62667;48.698;8.762;2023-05-07T00:50:10;95894.00;;;12.30
10869;BMP180;62667;48.698;8.762;2023-05-07T00:52:38;95899.00;;;12.30
10869;BMP180;62667;48.698;8.762;2023-05-07T00:55:07;95889.00;;;12.30
10869;BMP180;62667;48.698;8.762;2023-05-07T00:57:39;95901.00;;;12.10
10869;BMP180;62667;48.698;8.762;2023-05-07T01:00:08;95902.00;;;12.00
10869;BMP180;62667;48.698;8.762;2023-05-07T01:02:35;95901.00;;;12.00
10869;BMP180;62667;48.698;8.762;2023-05-07T01:05:05;95891.00;;;12.10
10869;BMP180;62667;48.698;8.762;2023-05-07T01:07:34;95881.00;;;12.00
10869;BMP180;62667;48.698;8.762;2023-05-07T01:10:04;95880.00;;;12.10
10869;BMP180;62667;48.698;8.762;2023-05-07T01:12:33;95878.00;;;12.10
10869;BMP180;62667;48.698;8.762;2023-05-07T01:15:04;95889.00;;;12.20
10869;BMP180;62667;48.698;8.762;2023-05-07T01:17:34;95887.00;;;12.10
10869;BMP180;62667;48.698;8.762;2023-05-07T01:20:01;95885.00;;;12.10
10869;BMP180;62667;48.698;8.762;2023-05-07T01:22:33;95888.00;;;12.20
10869;BMP180;62667;48.698;8.762;2023-05-07T01:25:03;95884.00;;;12.10
10869;BMP180;62667;48.698;8.762;2023-05-07T01:27:30;95896.00;;;11.90
10869;BMP180;62667;48.698;8.762;2023-05-07T01:29:59;95888.00;;;11.80
10869;BMP180;62667;48.698;8.762;2023-05-07T01:32:32;95898.00;;;11.60
10869;BMP180;62667;48.698;8.762;2023-05-07T01:35:02;95891.00;;;11.60
10869;BMP180;62667;48.698;8.762;2023-05-07T01:37:32;95900.00;;;11.70
10869;BMP180;62667;48.698;8.762;2023-05-07T01:40:01;95894.00;;;11.80
10869;BMP180;62667;48.698;8.762;2023-05-07T01:42:29;95886.00;;;11.70
10869;BMP180;62667;48.698;8.762;2023-05-07T01:44:56;95881.00;;;11.80
10869;BMP180;62667;48.698;8.762;2023-05-07T01:47:25;95882.00;;;11.90
10869;BMP180;62667;48.698;8.762;2023-05-07T01:52:20;95884.00;;;11.90
10869;BMP180;62667;48.698;8.762;2023-05-07T01:54:48;95890.00;;;11.90
10869;BMP180;62667;48.698;8.762;2023-05-07T01:57:15;95880.00;;;11.80
10869;BMP180;62667;48.698;8.762;2023-05-07T01:59:42;95886.00;;;11.80
10869;BMP180;62667;48.698;8.762;2023-05-07T02:02:10;95877.00;;;11.70
10869;BMP180;62667;48.698;8.762;2023-05-07T02:04:37;95882.00;;;11.70
10869;BMP180;62667;48.698;8.762;2023-05-07T02:07:03;95882.00;;;11.60
10869;BMP180;62667;48.698;8.762;2023-05-07T02:09:31;95883.00;;;11.60
10869;BMP180;62667;48.698;8.762;2023-05-07T02:11:59;95886.00;;;11.50
10869;BMP180;62667;48.698;8.762;2023-05-07T02:14:27;95885.00;;;11.40
10869;BMP180;62667;48.698;8.762;2023-05-07T02:16:54;95894.00;;;11.50
10869;BMP180;62667;48.698;8.762;2023-05-07T02:19:21;95896.00;;;11.50
10869;BMP180;62667;48.698;8.762;2023-05-07T02:21:48;95886.00;;;11.50
10869;BMP180;62667;48.698;8.762;2023-05-07T02:24:16;95891.00;;;11.60
10869;BMP180;62667;48.698;8.762;2023-05-07T02:26:43;95887.00;;;11.50
10869;BMP180;62667;48.698;8.762;2023-05-07T02:29:14;95890.00;;;11.50
10869;BMP180;62667;48.698;8.762;2023-05-07T02:31:41;95890.00;;;11.40
10869;BMP180;62667;48.698;8.762;2023-05-07T02:34:08;95890.00;;;11.40
10869;BMP180;62667;48.698;8.762;2023-05-07T02:36:35;95892.00;;;11.30
10869;BMP180;62667;48.698;8.762;2023-05-07T02:39:03;95894.00;;;11.40
10869;BMP180;62667;48.698;8.762;2023-05-07T02:41:30;95887.00;;;94.60
10869;BMP180;62667;48.698;8.762;2023-05-07T02:43:57;95890.00;;;11.40
10869;BMP180;62667;48.698;8.762;2023-05-07T02:46:26;95892.00;;;11.40
10869;BMP180;62667;48.698;8.762;2023-05-07T02:48:53;95878.00;;;11.30
10869;BMP180;62667;48.698;8.762;2023-05-07T02:51:22;95880.00;;;11.20
10869;BMP180;62667;48.698;8.762;2023-05-07T02:53:49;95871.00;;;11.10
10869;BMP180;62667;48.698;8.762;2023-05-07T02:56:16;95863.00;;;11.10
10869;BMP180;62667;48.698;8.762;2023-05-07T02:58:43;95852.00;;;11.20
10869;BMP180;62667;48.698;8.762;2023-05-07T03:01:10;95854.00;;;11.20
10869;BMP180;62667;48.698;8.762;2023-05-07T03:03:40;95851.00;;;11.10
10869;BMP180;62667;48.698;8.762;2023-05-07T03:06:08;95865.00;;;10.90
10869;BMP180;62667;48.698;8.762;2023-05-07T03:08:35;95863.00;;;10.80
10869;BMP180;62667;48.698;8.762;2023-05-07T03:11:02;95873.00;;;10.90
10869;BMP180;62667;48.698;8.762;2023-05-07T03:13:29;95875.00;;;10.80
10869;BMP180;62667;48.698;8.762;2023-05-07T03:15:56;95874.00;;;11.00
10869;BMP180;62667;48.698;8.762;2023-05-07T03:18:23;95873.00;;;10.80
10869;BMP180;62667;48.698;8.762;2023-05-07T03:20:52;95874.00;;;10.90
10869;BMP180;62667;48.698;8.762;2023-05-07T03:23:19;95878.00;;;10.90
10869;BMP180;62667;48.698;8.762;2023-05-07T03:25:46;95866.00;;;11.00
10869;BMP180;62667;48.698;8.762;2023-05-07T03:28:13;95872.00;;;11.00
10869;BMP180;62667;48.698;8.762;2023-05-07T03:30:40;95866.00;;;11.00
10869;BMP180;62667;48.698;8.762;2023-05-07T03:33:07;95865.00;;;10.90
10869;BMP180;62667;48.698;8.762;2023-05-07T03:35:34;95865.00;;;11.00
10869;BMP180;62667;48.698;8.762;2023-05-07T03:38:02;95865.00;;;11.00
10869;BMP180;62667;48.698;8.762;2023-05-07T03:40:29;95855.00;;;11.00
10869;BMP180;62667;48.698;8.762;2023-05-07T03:42:56;95858.00;;;10.90
10869;BMP180;62667;48.698;8.762;2023-05-07T03:45:23;95851.00;;;10.90
10869;BMP180;62667;48.698;8.762;2023-05-07T03:47:50;95857.00;;;10.90
10869;BMP180;62667;48.698;8.762;2023-05-07T03:50:19;95851.00;;;10.80
10869;BMP180;62667;48.698;8.762;2023-05-07T03:52:46;95859.00;;;10.80
10869;BMP180;62667;48.698;8.762;2023-05-07T03:55:14;95853.00;;;10.70
10869;BMP180;62667;48.698;8.762;2023-05-07T03:57:41;95858.00;;;10.60
10869;BMP180;62667;48.698;8.762;2023-05-07T04:00:10;95859.00;;;10.60
10869;BMP180;62667;48.698;8.762;2023-05-07T04:02:37;95867.00;;;10.50
10869;BMP180;62667;48.698;8.762;2023-05-07T04:05:05;95869.00;;;10.40
10869;BMP180;62667;48.698;8.762;2023-05-07T04:07:32;95874.00;;;10.40
10869;BMP180;62667;48.698;8.762;2023-05-07T04:09:59;95863.00;;;10.60
10869;BMP180;62667;48.698;8.762;2023-05-07T04:12:27;95878.00;;;10.50
10869;BMP180;62667;48.698;8.762;2023-05-07T04:14:54;95874.00;;;10.60
10869;BMP180;62667;48.698;8.762;2023-05-07T04:17:21;95874.00;;;10.60
10869;BMP180;62667;48.698;8.762;2023-05-07T04:19:48;95879.00;;;10.50
10869;BMP180;62667;48.698;8.762;2023-05-07T04:22:15;95878.00;;;10.50
10869;BMP180;62667;48.698;8.762;2023-05-07T04:24:43;95882.00;;;10.60
10869;BMP180;62667;48.698;8.762;2023-05-07T04:27:10;95887.00;;;10.60
10869;BMP180;62667;48.698;8.762;2023-05-07T04:29:38;95883.00;;;10.50
10869;BMP180;62667;48.698;8.762;2023-05-07T04:32:08;95882.00;;;10.40
10869;BMP180;62667;48.698;8.762;2023-05-07T04:34:35;95884.00;;;10.60
10869;BMP180;62667;48.698;8.762;2023-05-07T04:37:02;95883.00;;;10.70
10869;BMP180;62667;48.698;8.762;2023-05-07T04:39:29;95876.00;;;10.90
10869;BMP180;62667;48.698;8.762;2023-05-07T04:41:56;95879.00;;;10.90
10869;BMP180;62667;48.698;8.762;2023-05-07T04:44:23;95882.00;;;10.80
10869;BMP180;62667;48.698;8.762;2023-05-07T04:46:52;95880.00;;;10.70
10869;BMP180;62667;48.698;8.762;2023-05-07T04:49:19;95874.00;;;10.80
10869;BMP180;62667;48.698;8.762;2023-05-07T04:51:46;95877.00;;;10.80
10869;BMP180;62667;48.698;8.762;2023-05-07T04:54:13;95885.00;;;10.80
10869;BMP180;62667;48.698;8.762;2023-05-07T04:56:40;95890.00;;;10.90
10869;BMP180;62667;48.698;8.762;2023-05-07T04:59:07;95886.00;;;10.90
10869;BMP180;62667;48.698;8.762;2023-05-07T05:01:34;95884.00;;;11.00
10869;BMP180;62667;48.698;8.762;2023-05-07T05:04:03;95883.00;;;11.20
10869;BMP180;62667;48.698;8.762;2023-05-07T05:06:30;95888.00;;;11.20
10869;BMP180;62667;48.698;8.762;2023-05-07T05:08:57;95888.00;;;11.40
10869;BMP180;62667;48.698;8.762;2023-05-07T05:11:24;95896.00;;;11.40
10869;BMP180;62667;48.698;8.762;2023-05-07T05:13:51;95889.00;;;11.50
10869;BMP180;62667;48.698;8.762;2023-05-07T05:16:18;95894.00;;;11.50
10869;BMP180;62667;48.698;8.762;2023-05-07T05:18:45;95895.00;;;11.50
10869;BMP180;62667;48.698;8.762;2023-05-07T05:21:14;95904.00;;;11.50
10869;BMP180;62667;48.698;8.762;2023-05-07T05:23:42;95909.00;;;11.50
10869;BMP180;62667;48.698;8.762;2023-05-07T05:26:09;95906.00;;;11.50
10869;BMP180;62667;48.698;8.762;2023-05-07T05:28:36;95901.00;;;11.60
10869;BMP180;62667;48.698;8.762;2023-05-07T05:31:03;95899.00;;;11.80
10869;BMP180;62667;48.698;8.762;2023-05-07T05:33:30;95908.00;;;11.70
10869;BMP180;62667;48.698;8.762;2023-05-07T05:35:57;95899.00;;;11.60
10869;BMP180;62667;48.698;8.762;2023-05-07T05:38:25;95900.00;;;11.70
10869;BMP180;62667;48.698;8.762;2023-05-07T05:40:52;95899.00;;;12.00
10869;BMP180;62667;48.698;8.762;2023-05-07T05:43:19;95922.00;;;11.80
10869;BMP180;62667;48.698;8.762;2023-05-07T05:45:46;95915.00;;;11.90
10869;BMP180;62667;48.698;8.762;2023-05-07T05:48:13;95908.00;;;12.00
10869;BMP180;62667;48.698;8.762;2023-05-07T05:50:42;95916.00;;;12.30
10869;BMP180;62667;48.698;8.762;2023-05-07T05:53:09;95907.00;;;12.50
10869;BMP180;62667;48.698;8.762;2023-05-07T05:55:37;95907.00;;;12.60
10869;BMP180;62667;48.698;8.762;2023-05-07T05:58:05;95905.00;;;12.80
10869;BMP180;62667;48.698;8.762;2023-05-07T06:00:32;95907.00;;;13.00
10869;BMP180;62667;48.698;8.762;2023-05-07T06:02:59;95906.00;;;13.10
10869;BMP180;62667;48.698;8.762;2023-05-07T06:05:27;95902.00;;;13.30
10869;BMP180;62667;48.698;8.762;2023-05-07T06:07:54;95905.00;;;13.30
10869;BMP180;62667;48.698;8.762;2023-05-07T06:10:21;95913.00;;;13.30
10869;BMP180;62667;48.698;8.762;2023-05-07T06:12:49;95911.00;;;13.30
10869;BMP180;62667;48.698;8.762;2023-05-07T06:15:16;95912.00;;;13.30
10869;BMP180;62667;48.698;8.762;2023-05-07T06:17:44;95910.00;;;13.40
10869;BMP180;62667;48.698;8.762;2023-05-07T06:20:11;95910.00;;;13.20
10869;BMP180;62667;48.698;8.762;2023-05-07T06:22:38;95911.00;;;13.10
10869;BMP180;62667;48.698;8.762;2023-05-07T06:25:06;95918.00;;;13.30
10869;BMP180;62667;48.698;8.762;2023-05-07T06:27:33;95917.00;;;13.60
10869;BMP180;62667;48.698;8.762;2023-05-07T06:30:03;95916.00;;;13.80
10869;BMP180;62667;48.698;8.762;2023-05-07T06:32:30;95917.00;;;14.00
10869;BMP180;62667;48.698;8.762;2023-05-07T06:34:57;95923.00;;;14.20
10869;BMP180;62667;48.698;8.762;2023-05-07T06:37:25;95918.00;;;14.20
10869;BMP180;62667;48.698;8.762;2023-05-07T06:39:52;95919.00;;;14.30
10869;BMP180;62667;48.698;8.762;2023-05-07T06:42:19;95920.00;;;14.40
10869;BMP180;62667;48.698;8.762;2023-05-07T06:44:46;95915.00;;;14.60
10869;BMP180;62667;48.698;8.762;2023-05-07T06:47:14;95916.00;;;14.80
10869;BMP180;62667;48.698;8.762;2023-05-07T06:49:41;95910.00;;;15.00
10869;BMP180;62667;48.698;8.762;2023-05-07T06:52:09;95905.00;;;15.30
10869;BMP180;62667;48.698;8.762;2023-05-07T06:54:36;95909.00;;;15.50
10869;BMP180;62667;48.698;8.762;2023-05-07T06:57:03;95920.00;;;15.70
10869;BMP180;62667;48.698;8.762;2023-05-07T06:59:30;95917.00;;;15.70
10869;BMP180;62667;48.698;8.762;2023-05-07T07:01:58;95918.00;;;15.90
10869;BMP180;62667;48.698;8.762;2023-05-07T07:04:27;95912.00;;;16.00
10869;BMP180;62667;48.698;8.762;2023-05-07T07:06:55;95923.00;;;16.10
10869;BMP180;62667;48.698;8.762;2023-05-07T07:09:22;95918.00;;;16.00
10869;BMP180;62667;48.698;8.762;2023-05-07T07:11:50;95918.00;;;16.10
10869;BMP180;62667;48.698;8.762;2023-05-07T07:14:17;95921.00;;;16.20
10869;BMP180;62667;48.698;8.762;2023-05-07T07:16:45;95916.00;;;16.30
10869;BMP180;62667;48.698;8.762;2023-05-07T07:19:13;95918.00;;;16.30
10869;BMP180;62667;48.698;8.762;2023-05-07T07:21:43;95922.00;;;16.40
10869;BMP180;62667;48.698;8.762;2023-05-07T07:24:11;95926.00;;;16.40
10869;BMP180;62667;48.698;8.762;2023-05-07T07:26:38;95923.00;;;16.30
10869;BMP180;62667;48.698;8.762;2023-05-07T07:29:06;95921.00;;;16.40
10869;BMP180;62667;48.698;8.762;2023-05-07T07:31:33;95927.00;;;16.50
10869;BMP180;62667;48.698;8.762;2023-05-07T07:34:01;95918.00;;;16.50
10869;BMP180;62667;48.698;8.762;2023-05-07T07:36:28;95920.00;;;16.80
10869;BMP180;62667;48.698;8.762;2023-05-07T07:38:57;95928.00;;;17.00
10869;BMP180;62667;48.698;8.762;2023-05-07T07:41:24;95920.00;;;17.00
10869;BMP180;62667;48.698;8.762;2023-05-07T07:43:51;95920.00;;;17.40
10869;BMP180;62667;48.698;8.762;2023-05-07T07:46:18;95917.00;;;17.60
10869;BMP180;62667;48.698;8.762;2023-05-07T07:48:46;95916.00;;;17.80
10869;BMP180;62667;48.698;8.762;2023-05-07T07:51:13;95917.00;;;18.30
10869;BMP180;62667;48.698;8.762;2023-05-07T07:53:40;95919.00;;;18.30
10869;BMP180;62667;48.698;8.762;2023-05-07T07:56:09;95918.00;;;18.30
10869;BMP180;62667;48.698;8.762;2023-05-07T07:58:37;95930.00;;;18.20
10869;BMP180;62667;48.698;8.762;2023-05-07T08:01:05;95937.00;;;18.10
10869;BMP180;62667;48.698;8.762;2023-05-07T08:03:32;95931.00;;;17.90
10869;BMP180;62667;48.698;8.762;2023-05-07T08:06:00;95933.00;;;18.10
10869;BMP180;62667;48.698;8.762;2023-05-07T08:08:27;95935.00;;;18.20
10869;BMP180;62667;48.698;8.762;2023-05-07T08:10:54;95932.00;;;18.50
10869;BMP180;62667;48.698;8.762;2023-05-07T08:13:24;95918.00;;;18.80
10869;BMP180;62667;48.698;8.762;2023-05-07T08:15:52;95926.00;;;19.00
10869;BMP180;62667;48.698;8.762;2023-05-07T08:18:19;95924.00;;;18.70
10869;BMP180;62667;48.698;8.762;2023-05-07T08:20:46;95921.00;;;18.80
10869;BMP180;62667;48.698;8.762;2023-05-07T08:23:13;95919.00;;;19.10
10869;BMP180;62667;48.698;8.762;2023-05-07T08:25:40;95923.00;;;19.20
10869;BMP180;62667;48.698;8.762;2023-05-07T08:28:08;95929.00;;;19.40
10869;BMP180;62667;48.698;8.762;2023-05-07T08:30:37;95933.00;;;19.20
10869;BMP180;62667;48.698;8.762;2023-05-07T08:33:05;95932.00;;;19.10
10869;BMP180;62667;48.698;8.762;2023-05-07T08:35:32;95928.00;;;19.00
10869;BMP180;62667;48.698;8.762;2023-05-07T08:37:59;95932.00;;;18.90
10869;BMP180;62667;48.698;8.762;2023-05-07T08:40:26;95920.00;;;19.00
10869;BMP180;62667;48.698;8.762;2023-05-07T08:42:56;95927.00;;;19.20
10869;BMP180;62667;48.698;8.762;2023-05-07T08:45:26;95920.00;;;19.20
10869;BMP180;62667;48.698;8.762;2023-05-07T08:48:00;95924.00;;;19.20
10869;BMP180;62667;48.698;8.762;2023-05-07T08:50:29;95935.00;;;19.10
10869;BMP180;62667;48.698;8.762;2023-05-07T08:52:57;95937.00;;;19.30
10869;BMP180;62667;48.698;8.762;2023-05-07T08:55:24;95930.00;;;19.20
10869;BMP180;62667;48.698;8.762;2023-05-07T08:57:51;95931.00;;;19.50
10869;BMP180;62667;48.698;8.762;2023-05-07T09:00:19;95932.00;;;19.60
10869;BMP180;62667;48.698;8.762;2023-05-07T09:02:46;95939.00;;;19.60
10869;BMP180;62667;48.698;8.762;2023-05-07T09:05:15;95932.00;;;19.50
10869;BMP180;62667;48.698;8.762;2023-05-07T09:07:42;95934.00;;;19.70
10869;BMP180;62667;48.698;8.762;2023-05-07T09:10:10;95929.00;;;19.90
10869;BMP180;62667;48.698;8.762;2023-05-07T09:12:38;95925.00;;;20.00
10869;BMP180;62667;48.698;8.762;2023-05-07T09:15:07;95918.00;;;20.30
10869;BMP180;62667;48.698;8.762;2023-05-07T09:17:34;95918.00;;;20.60
10869;BMP180;62667;48.698;8.762;2023-05-07T09:20:06;95915.00;;;20.70
10869;BMP180;62667;48.698;8.762;2023-05-07T09:22:37;95915.00;;;20.90
10869;BMP180;62667;48.698;8.762;2023-05-07T09:25:05;95908.00;;;21.10
10869;BMP180;62667;48.698;8.762;2023-05-07T09:27:33;95912.00;;;21.30
10869;BMP180;62667;48.698;8.762;2023-05-07T09:30:04;95906.00;;;21.60
10869;BMP180;62667;48.698;8.762;2023-05-07T09:32:35;95913.00;;;21.50
10869;BMP180;62667;48.698;8.762;2023-05-07T09:35:04;95909.00;;;21.80
10869;BMP180;62667;48.698;8.762;2023-05-07T09:37:32;95913.00;;;21.70
10869;BMP180;62667;48.698;8.762;2023-05-07T09:40:00;95905.00;;;21.40
10869;BMP180;62667;48.698;8.762;2023-05-07T09:42:29;95906.00;;;21.70
10869;BMP180;62667;48.698;8.762;2023-05-07T09:44:56;95907.00;;;21.80
10869;BMP180;62667;48.698;8.762;2023-05-07T09:47:24;95905.00;;;22.30
10869;BMP180;62667;48.698;8.762;2023-05-07T09:49:56;95903.00;;;22.30
10869;BMP180;62667;48.698;8.762;2023-05-07T09:52:25;95896.00;;;22.30
10869;BMP180;62667;48.698;8.762;2023-05-07T09:54:57;95890.00;;;22.50
10869;BMP180;62667;48.698;8.762;2023-05-07T09:57:28;95896.00;;;22.60
10869;BMP180;62667;48.698;8.762;2023-05-07T09:59:57;95896.00;;;22.90
10869;BMP180;62667;48.698;8.762;2023-05-07T10:02:30;95879.00;;;23.20
10869;BMP180;62667;48.698;8.762;2023-05-07T10:04:58;95888.00;;;23.40
10869;BMP180;62667;48.698;8.762;2023-05-07T10:07:26;95887.00;;;23.50
10869;BMP180;62667;48.698;8.762;2023-05-07T10:09:55;95894.00;;;23.00
10869;BMP180;62667;48.698;8.762;2023-05-07T10:12:23;95884.00;;;22.90
10869;BMP180;62667;48.698;8.762;2023-05-07T10:14:54;95892.00;;;22.80
10869;BMP180;62667;48.698;8.762;2023-05-07T10:17:23;95878.00;;;22.90
10869;BMP180;62667;48.698;8.762;2023-05-07T10:19:53;95877.00;;;23.00
10869;BMP180;62667;48.698;8.762;2023-05-07T10:22:21;95876.00;;;23.10
10869;BMP180;62667;48.698;8.762;2023-05-07T10:24:52;95900.00;;;23.80
10869;BMP180;62667;48.698;8.762;2023-05-07T10:27:22;95884.00;;;23.40
10869;BMP180;62667;48.698;8.762;2023-05-07T10:30:03;95847.00;;;22.80
10869;BMP180;62667;48.698;8.762;2023-05-07T10:32:40;95891.00;;;22.30
10869;BMP180;62667;48.698;8.762;2023-05-07T10:35:15;95883.00;;;22.50
10869;BMP180;62667;48.698;8.762;2023-05-07T10:37:44;95886.00;;;22.50
10869;BMP180;62667;48.698;8.762;2023-05-07T10:40:12;95891.00;;;22.60
10869;BMP180;62667;48.698;8.762;2023-05-07T10:42:54;95896.00;;;22.40
10869;BMP180;62667;48.698;8.762;2023-05-07T10:45:24;95893.00;;;22.00
10869;BMP180;62667;48.698;8.762;2023-05-07T10:48:09;95899.00;;;22.10
10869;BMP180;62667;48.698;8.762;2023-05-07T10:50:38;95900.00;;;21.90
10869;BMP180;62667;48.698;8.762;2023-05-07T10:53:25;95897.00;;;21.70
10869;BMP180;62667;48.698;8.762;2023-05-07T10:56:26;95902.00;;;21.50
10869;BMP180;62667;48.698;8.762;2023-05-07T11:01:56;95915.00;;;21.00
10869;BMP180;62667;48.698;8.762;2023-05-07T11:04:24;95916.00;;;20.80
10869;BMP180;62667;48.698;8.762;2023-05-07T11:07:29;95919.00;;;20.50
10869;BMP180;62667;48.698;8.762;2023-05-07T11:10:06;95920.00;;;20.10
10869;BMP180;62667;48.698;8.762;2023-05-07T11:12:52;95936.00;;;19.80
10869;BMP180;62667;48.698;8.762;2023-05-07T11:15:40;95942.00;;;19.50
10869;BMP180;62667;48.698;8.762;2023-05-07T11:18:17;95935.00;;;19.40
10869;BMP180;62667;48.698;8.762;2023-05-07T11:20:56;95929.00;;;19.10
10869;BMP180;62667;48.698;8.762;2023-05-07T11:26:49;95947.00;;;18.80
10869;BMP180;62667;48.698;8.762;2023-05-07T11:29:18;95944.00;;;18.70
10869;BMP180;62667;48.698;8.762;2023-05-07T11:31:49;95951.00;;;18.60
10869;BMP180;62667;48.698;8.762;2023-05-07T11:34:24;95944.00;;;18.20
10869;BMP180;62667;48.698;8.762;2023-05-07T11:36:52;95952.00;;;18.10
10869;BMP180;62667;48.698;8.762;2023-05-07T11:39:31;95953.00;;;17.90
10869;BMP180;62667;48.698;8.762;2023-05-07T11:42:00;95961.00;;;17.80
10869;BMP180;62667;48.698;8.762;2023-05-07T11:44:41;95971.00;;;17.70
10869;BMP180;62667;48.698;8.762;2023-05-07T11:47:10;95985.00;;;17.50
10869;BMP180;62667;48.698;8.762;2023-05-07T11:49:38;95978.00;;;17.00
10869;BMP180;62667;48.698;8.762;2023-05-07T11:52:06;95978.00;;;16.80
10869;BMP180;62667;48.698;8.762;2023-05-07T11:54:37;95979.00;;;16.80
10869;BMP180;62667;48.698;8.762;2023-05-07T11:57:04;95976.00;;;16.70
10869;BMP180;62667;48.698;8.762;2023-05-07T11:59:38;95974.00;;;16.70
10869;BMP180;62667;48.698;8.762;2023-05-07T12:02:06;95980.00;;;16.50
10869;BMP180;62667;48.698;8.762;2023-05-07T12:04:34;95975.00;;;16.60
10869;BMP180;62667;48.698;8.762;2023-05-07T12:07:02;95954.00;;;16.80
10869;BMP180;62667;48.698;8.762;2023-05-07T12:09:29;95932.00;;;17.10
10869;BMP180;62667;48.698;8.762;2023-05-07T12:12:03;95911.00;;;17.30
10869;BMP180;62667;48.698;8.762;2023-05-07T12:14:31;95902.00;;;17.40
10869;BMP180;62667;48.698;8.762;2023-05-07T12:17:00;95906.00;;;17.50
10869;BMP180;62667;48.698;8.762;2023-05-07T12:19:29;95908.00;;;17.60
10869;BMP180;62667;48.698;8.762;2023-05-07T12:21:57;95899.00;;;17.40
10869;BMP180;62667;48.698;8.762;2023-05-07T12:24:26;95894.00;;;17.40
10869;BMP180;62667;48.698;8.762;2023-05-07T12:26:53;95894.00;;;17.30
10869;BMP180;62667;48.698;8.762;2023-05-07T12:29:22;95930.00;;;17.20
10869;BMP180;62667;48.698;8.762;2023-05-07T12:31:50;95976.00;;;16.70
10869;BMP180;62667;48.698;8.762;2023-05-07T12:34:17;95984.00;;;16.10
10869;BMP180;62667;48.698;8.762;2023-05-07T12:36:45;95972.00;;;16.10
10869;BMP180;62667;48.698;8.762;2023-05-07T12:39:15;95975.00;;;16.30
10869;BMP180;62667;48.698;8.762;2023-05-07T12:41:56;95996.00;;;16.40
10869;BMP180;62667;48.698;8.762;2023-05-07T12:44:29;95988.00;;;16.50
10869;BMP180;62667;48.698;8.762;2023-05-07T12:46:57;95986.00;;;16.60
10869;BMP180;62667;48.698;8.762;2023-05-07T12:49:26;95993.00;;;16.60
10869;BMP180;62667;48.698;8.762;2023-05-07T12:51:54;95999.00;;;16.60
10869;BMP180;62667;48.698;8.762;2023-05-07T12:54:31;96002.00;;;16.40
10869;BMP180;62667;48.698;8.762;2023-05-07T12:57:04;96009.00;;;16.00
10869;BMP180;62667;48.698;8.762;2023-05-07T12:59:33;96024.00;;;15.80
10869;BMP180;62667;48.698;8.762;2023-05-07T13:02:01;96025.00;;;15.80
10869;BMP180;62667;48.698;8.762;2023-05-07T13:04:28;96036.00;;;15.30
10869;BMP180;62667;48.698;8.762;2023-05-07T13:06:55;96035.00;;;14.90
10869;BMP180;62667;48.698;8.762;2023-05-07T13:09:23;96037.00;;;14.80
10869;BMP180;62667;48.698;8.762;2023-05-07T13:11:50;96051.00;;;14.70
10869;BMP180;62667;48.698;8.762;2023-05-07T13:14:19;96056.00;;;14.70
10869;BMP180;62667;48.698;8.762;2023-05-07T13:16:46;96066.00;;;14.80
10869;BMP180;62667;48.698;8.762;2023-05-07T13:19:14;96063.00;;;14.90
10869;BMP180;62667;48.698;8.762;2023-05-07T13:21:41;96068.00;;;14.90
10869;BMP180;62667;48.698;8.762;2023-05-07T13:24:09;96057.00;;;14.90
10869;BMP180;62667;48.698;8.762;2023-05-07T13:26:36;96059.00;;;14.90
10869;BMP180;62667;48.698;8.762;2023-05-07T13:29:03;96075.00;;;14.80
10869;BMP180;62667;48.698;8.762;2023-05-07T13:31:32;96074.00;;;14.90
10869;BMP180;62667;48.698;8.762;2023-05-07T13:33:59;96067.00;;;15.10
10869;BMP180;62667;48.698;8.762;2023-05-07T13:36:27;96069.00;;;15.00
10869;BMP180;62667;48.698;8.762;2023-05-07T13:38:54;96058.00;;;14.90
10869;BMP180;62667;48.698;8.762;2023-05-07T13:41:22;96067.00;;;14.50
10869;BMP180;62667;48.698;8.762;2023-05-07T13:43:49;96064.00;;;14.50
10869;BMP180;62667;48.698;8.762;2023-05-07T13:46:16;96051.00;;;14.30
10869;BMP180;62667;48.698;8.762;2023-05-07T13:48:45;96048.00;;;14.30
10869;BMP180;62667;48.698;8.762;2023-05-07T13:51:12;96052.00;;;14.40
10869;BMP180;62667;48.698;8.762;2023-05-07T13:53:40;96050.00;;;14.40
10869;BMP180;62667;48.698;8.762;2023-05-07T13:56:08;96042.00;;;14.40
10869;BMP180;62667;48.698;8.762;2023-05-07T13:58:35;96046.00;;;14.30
10869;BMP180;62667;48.698;8.762;2023-05-07T14:01:03;96033.00;;;14.30
10869;BMP180;62667;48.698;8.762;2023-05-07T14:03:30;96025.00;;;14.40
10869;BMP180;62667;48.698;8.762;2023-05-07T14:06:01;96021.00;;;14.60
10869;BMP180;62667;48.698;8.762;2023-05-07T14:08:28;96021.00;;;14.70
10869;BMP180;62667;48.698;8.762;2023-05-07T14:10:56;96014.00;;;14.90
10869;BMP180;62667;48.698;8.762;2023-05-07T14:13:23;96017.00;;;15.10
10869;BMP180;62667;48.698;8.762;2023-05-07T14:15:51;96004.00;;;15.20
10869;BMP180;62667;48.698;8.762;2023-05-07T14:18:19;96000.00;;;15.30
10869;BMP180;62667;48.698;8.762;2023-05-07T14:20:46;95994.00;;;15.40
10869;BMP180;62667;48.698;8.762;2023-05-07T14:23:16;95977.00;;;15.30
10869;BMP180;62667;48.698;8.762;2023-05-07T14:25:45;95981.00;;;15.60